createdAt,value
2019-06-15T00:00:12.582Z,88.87
2019-06-15T00:02:43.579Z,89.11
2019-06-15T00:05:12.991Z,89.17
2019-06-15T00:07:42.364Z,89.15
2019-06-15T00:10:11.895Z,89.18
2019-06-15T00:12:41.260Z,89.49
2019-06-15T00:15:10.903Z,89.54
2019-06-15T00:17:40.256Z,89.43
2019-06-15T00:20:10.194Z,89.49
2019-06-15T00:22:39.561Z,89.39
2019-06-15T00:25:09.768Z,89.43
2019-06-15T00:27:39.140Z,89.55
2019-06-15T00:30:10.383Z,89.60
2019-06-15T00:32:39.774Z,89.74
2019-06-15T00:35:09.681Z,89.78
2019-06-15T00:37:39.090Z,89.93
2019-06-15T00:40:10.309Z,89.93
2019-06-15T00:42:39.698Z,89.94
2019-06-15T00:45:10.877Z,89.84
2019-06-15T00:47:40.272Z,90.90
2019-06-15T00:50:10.571Z,91.94
2019-06-15T00:52:39.977Z,93.44
2019-06-15T00:55:09.553Z,95.04
2019-06-15T00:57:39.072Z,96.07
2019-06-15T01:00:09.101Z,97.00
2019-06-15T01:02:38.494Z,97.77
2019-06-15T01:05:08.804Z,98.59
2019-06-15T01:07:38.199Z,99.49
2019-06-15T01:10:09.019Z,100.00
2019-06-15T01:12:38.443Z,100.00
2019-06-15T01:15:09.157Z,100.00
2019-06-15T01:17:38.611Z,100.00
2019-06-15T01:20:09.249Z,100.00
2019-06-15T01:22:38.629Z,100.00
2019-06-15T01:25:10.552Z,100.00
2019-06-15T01:27:40.481Z,100.00
2019-06-15T01:30:11.315Z,100.00
2019-06-15T01:32:40.669Z,100.00
2019-06-15T01:35:10.487Z,100.00
2019-06-15T01:37:39.874Z,100.00
2019-06-15T01:40:10.099Z,100.00
2019-06-15T01:42:39.485Z,100.00
2019-06-15T01:45:09.026Z,100.00
2019-06-15T01:47:38.413Z,100.00
2019-06-15T01:50:09.340Z,100.00
2019-06-15T01:52:38.810Z,100.00
2019-06-15T01:55:20.611Z,100.00
2019-06-15T01:57:39.840Z,100.00
2019-06-15T02:00:11.339Z,100.00
2019-06-15T02:02:40.754Z,100.00
2019-06-15T02:05:10.185Z,100.00
2019-06-15T02:07:39.552Z,100.00
2019-06-15T02:10:09.269Z,100.00
2019-06-15T02:12:38.660Z,100.00
2019-06-15T02:15:08.796Z,100.00
2019-06-15T02:17:38.181Z,100.00
2019-06-15T02:20:08.382Z,100.00
2019-06-15T02:22:37.786Z,100.00
2019-06-15T02:25:07.690Z,100.00
2019-06-15T02:27:37.216Z,100.00
2019-06-15T02:30:09.154Z,100.00
2019-06-15T02:32:38.522Z,100.00
2019-06-15T02:35:08.121Z,99.86
2019-06-15T02:37:37.496Z,99.78
2019-06-15T02:40:07.687Z,99.98
2019-06-15T02:42:38.118Z,100.00
2019-06-15T02:45:07.840Z,100.00
2019-06-15T02:47:37.197Z,100.00
2019-06-15T02:50:07.733Z,100.00
2019-06-15T02:52:37.352Z,100.00
2019-06-15T02:55:09.835Z,100.00
2019-06-15T02:57:39.226Z,100.00
2019-06-15T03:00:09.655Z,100.00
2019-06-15T03:02:39.031Z,100.00
2019-06-15T03:05:09.148Z,100.00
2019-06-15T03:07:38.948Z,100.00
2019-06-15T03:10:08.870Z,100.00
2019-06-15T03:12:39.290Z,100.00
2019-06-15T03:15:10.556Z,100.00
2019-06-15T03:17:39.924Z,100.00
2019-06-15T03:20:09.451Z,100.00
2019-06-15T03:22:38.821Z,100.00
2019-06-15T03:25:13.537Z,100.00
2019-06-15T03:27:42.926Z,100.00
2019-06-15T03:30:12.463Z,100.00
2019-06-15T03:32:41.856Z,100.00
2019-06-15T03:35:13.369Z,100.00
2019-06-15T03:37:42.742Z,100.00
2019-06-15T03:40:13.073Z,100.00
2019-06-15T03:42:42.495Z,100.00
2019-06-15T03:45:12.722Z,100.00
2019-06-15T03:47:42.093Z,100.00
2019-06-15T03:50:12.102Z,100.00
2019-06-15T03:52:41.504Z,100.00
2019-06-15T03:55:11.829Z,100.00
2019-06-15T03:57:41.225Z,100.00
2019-06-15T04:00:19.800Z,100.00
2019-06-15T04:02:49.165Z,100.00
2019-06-15T04:05:18.539Z,100.00
2019-06-15T04:07:47.914Z,100.00
2019-06-15T04:10:17.360Z,100.00
2019-06-15T04:12:46.751Z,100.00
2019-06-15T04:15:16.194Z,100.00
2019-06-15T04:17:45.581Z,100.00
2019-06-15T04:20:15.065Z,100.00
2019-06-15T04:22:44.424Z,100.00
2019-06-15T04:25:14.357Z,100.00
2019-06-15T04:27:43.748Z,100.00
2019-06-15T04:30:13.252Z,100.00
2019-06-15T04:32:42.652Z,100.00
2019-06-15T04:35:12.172Z,100.00
2019-06-15T04:37:41.576Z,100.00
2019-06-15T04:40:11.241Z,100.00
2019-06-15T04:42:40.623Z,100.00
2019-06-15T04:45:10.312Z,100.00
2019-06-15T04:47:39.692Z,100.00
2019-06-15T04:50:10.197Z,100.00
2019-06-15T04:52:39.571Z,100.00
2019-06-15T04:55:09.297Z,100.00
2019-06-15T04:57:38.671Z,100.00
2019-06-15T05:00:10.950Z,100.00
2019-06-15T05:02:40.580Z,100.00
2019-06-15T05:05:11.559Z,100.00
2019-06-15T05:07:40.940Z,100.00
2019-06-15T05:10:12.038Z,100.00
2019-06-15T05:12:41.440Z,100.00
2019-06-15T05:15:11.058Z,100.00
2019-06-15T05:17:40.435Z,100.00
2019-06-15T05:20:10.270Z,100.00
2019-06-15T05:22:39.671Z,100.00
2019-06-15T05:25:09.374Z,100.00
2019-06-15T05:27:38.749Z,100.00
2019-06-15T05:30:09.802Z,100.00
2019-06-15T05:32:39.206Z,100.00
2019-06-15T05:35:08.913Z,100.00
2019-06-15T05:37:38.307Z,100.00
2019-06-15T05:40:08.975Z,100.00
2019-06-15T05:42:38.430Z,100.00
2019-06-15T05:45:08.144Z,100.00
2019-06-15T05:47:37.510Z,100.00
2019-06-15T05:50:08.958Z,100.00
2019-06-15T05:52:38.345Z,100.00
2019-06-15T05:55:08.431Z,100.00
2019-06-15T05:57:37.780Z,100.00
2019-06-15T06:00:13.099Z,100.00
2019-06-15T06:02:42.483Z,100.00
2019-06-15T06:05:13.666Z,100.00
2019-06-15T06:07:43.042Z,100.00
2019-06-15T06:10:12.852Z,100.00
2019-06-15T06:12:42.268Z,100.00
2019-06-15T06:15:12.988Z,100.00
2019-06-15T06:17:42.529Z,100.00
2019-06-15T06:20:12.584Z,100.00
2019-06-15T06:22:41.997Z,100.00
2019-06-15T06:25:11.602Z,100.00
2019-06-15T06:27:41.708Z,100.00
2019-06-15T06:30:11.943Z,100.00
2019-06-15T06:32:41.325Z,100.00
2019-06-15T06:35:10.885Z,100.00
2019-06-15T06:37:40.253Z,100.00
2019-06-15T06:40:11.266Z,100.00
2019-06-15T06:42:41.720Z,99.77
2019-06-15T06:45:13.212Z,99.29
2019-06-15T06:47:42.575Z,98.66
2019-06-15T06:50:12.650Z,97.73
2019-06-15T06:52:42.032Z,96.61
2019-06-15T06:55:11.653Z,95.46
2019-06-15T06:57:51.690Z,94.65
2019-06-15T07:00:12.886Z,93.60
2019-06-15T07:02:42.262Z,94.13
2019-06-15T07:05:12.093Z,94.39
2019-06-15T07:07:41.499Z,93.82
2019-06-15T07:10:11.628Z,91.69
2019-06-15T07:12:41.010Z,88.66
2019-06-15T07:15:10.546Z,86.83
2019-06-15T07:17:39.959Z,85.44
2019-06-15T07:20:09.573Z,85.81
2019-06-15T07:22:38.946Z,86.43
2019-06-15T07:25:08.455Z,88.15
2019-06-15T07:27:37.836Z,87.11
2019-06-15T07:30:10.271Z,87.39
2019-06-15T07:32:39.854Z,87.67
2019-06-15T07:35:09.976Z,88.05
2019-06-15T07:37:40.298Z,88.60
2019-06-15T07:40:09.894Z,89.42
2019-06-15T07:42:39.714Z,89.57
2019-06-15T07:45:09.599Z,90.17
2019-06-15T07:47:38.995Z,90.36
2019-06-15T07:50:08.552Z,90.85
2019-06-15T07:52:37.970Z,91.12
2019-06-15T07:55:10.508Z,91.53
2019-06-15T07:57:39.891Z,91.92
2019-06-15T08:00:11.187Z,92.17
2019-06-15T08:02:40.592Z,92.56
2019-06-15T08:05:10.102Z,92.73
2019-06-15T08:07:39.521Z,92.95
2019-06-15T08:10:09.017Z,93.08
2019-06-15T08:12:38.413Z,93.33
2019-06-15T08:15:10.430Z,93.69
2019-06-15T08:17:39.781Z,93.75
2019-06-15T08:20:10.670Z,93.82
2019-06-15T08:22:40.125Z,94.22
2019-06-15T08:25:10.731Z,94.08
2019-06-15T08:27:40.281Z,93.55
2019-06-15T08:30:10.950Z,93.28
2019-06-15T08:32:40.303Z,93.40
2019-06-15T08:35:10.203Z,93.51
2019-06-15T08:37:39.572Z,93.72
2019-06-15T08:40:09.748Z,93.67
2019-06-15T08:42:39.103Z,93.53
2019-06-15T08:45:08.954Z,93.26
2019-06-15T08:47:38.356Z,93.14
2019-06-15T08:50:08.660Z,92.74
2019-06-15T08:52:38.057Z,92.22
2019-06-15T08:55:07.622Z,91.90
2019-06-15T08:57:40.180Z,91.34
2019-06-15T09:00:09.074Z,91.26
2019-06-15T09:02:38.474Z,90.85
2019-06-15T09:05:08.611Z,89.09
2019-06-15T09:07:37.996Z,86.47
2019-06-15T09:10:09.147Z,79.46
2019-06-15T09:12:38.548Z,73.68
2019-06-15T09:15:09.325Z,70.54
2019-06-15T09:17:38.784Z,69.01
2019-06-15T09:20:09.968Z,66.56
2019-06-15T09:22:39.344Z,61.97
2019-06-15T09:25:09.046Z,58.03
2019-06-15T09:27:38.448Z,57.28
2019-06-15T09:30:08.645Z,57.26
2019-06-15T09:32:38.048Z,53.03
2019-06-15T09:35:07.624Z,51.37
2019-06-15T09:37:37.968Z,50.19
2019-06-15T09:40:08.762Z,48.11
2019-06-15T09:42:38.114Z,47.25
2019-06-15T09:45:08.627Z,46.94
2019-06-15T09:47:38.146Z,46.91
2019-06-15T09:50:07.978Z,46.78
2019-06-15T09:52:37.454Z,44.51
2019-06-15T09:55:10.195Z,44.70
2019-06-15T09:57:39.502Z,43.29
2019-06-15T10:00:10.718Z,41.98
2019-06-15T10:02:40.138Z,40.48
2019-06-15T10:05:09.943Z,38.90
2019-06-15T10:07:39.316Z,39.78
2019-06-15T10:10:09.322Z,40.59
2019-06-15T10:12:38.695Z,40.01
2019-06-15T10:15:09.324Z,40.26
2019-06-15T10:17:38.700Z,40.89
2019-06-15T10:20:09.102Z,40.37
2019-06-15T10:22:38.484Z,39.96
2019-06-15T10:25:09.097Z,39.96
2019-06-15T10:27:38.454Z,38.36
2019-06-15T10:30:09.243Z,38.71
2019-06-15T10:32:38.610Z,38.63
2019-06-15T10:35:08.287Z,39.25
2019-06-15T10:37:37.623Z,40.31
2019-06-15T10:40:07.968Z,41.13
2019-06-15T10:42:37.341Z,41.71
2019-06-15T10:45:07.547Z,42.43
2019-06-15T10:47:37.034Z,43.85
2019-06-15T10:50:08.041Z,45.64
2019-06-15T10:52:37.488Z,46.24
2019-06-15T10:55:08.413Z,46.89
2019-06-15T10:57:37.823Z,47.45
2019-06-15T11:00:12.648Z,47.87
2019-06-15T11:02:41.993Z,49.14
2019-06-15T11:05:14.399Z,49.00
2019-06-15T11:07:43.791Z,49.60
2019-06-15T11:10:15.503Z,50.07
2019-06-15T11:12:46.579Z,50.25
2019-06-15T11:15:15.997Z,51.42
2019-06-15T11:17:45.462Z,52.24
2019-06-15T11:20:15.954Z,52.86
2019-06-15T11:22:45.417Z,53.92
2019-06-15T11:25:14.799Z,54.59
2019-06-15T11:27:44.194Z,55.27
2019-06-15T11:30:14.717Z,55.44
2019-06-15T11:32:44.135Z,55.50
2019-06-15T11:35:13.876Z,55.63
2019-06-15T11:37:43.259Z,54.98
2019-06-15T11:40:12.958Z,54.98
2019-06-15T11:42:42.326Z,53.96
2019-06-15T11:45:11.863Z,54.50
2019-06-15T11:47:41.242Z,55.19
2019-06-15T11:50:12.039Z,55.87
2019-06-15T11:52:41.611Z,56.18
2019-06-15T11:55:11.105Z,56.77
2019-06-15T11:57:40.469Z,57.22
2019-06-15T12:00:10.476Z,57.79
2019-06-15T12:02:39.840Z,58.24
2019-06-15T12:05:09.267Z,59.13
2019-06-15T12:07:38.637Z,59.25
2019-06-15T12:10:08.768Z,58.38
2019-06-15T12:12:38.166Z,59.09
2019-06-15T12:15:07.992Z,59.86
2019-06-15T12:17:37.350Z,60.39
2019-06-15T12:20:06.884Z,60.23
2019-06-15T12:22:36.254Z,60.68
2019-06-15T12:25:06.913Z,59.34
2019-06-15T12:27:36.279Z,58.75
2019-06-15T12:30:11.087Z,58.31
2019-06-15T12:32:40.470Z,57.67
2019-06-15T12:35:10.578Z,57.87
2019-06-15T12:37:39.944Z,56.75
2019-06-15T12:40:11.029Z,56.89
2019-06-15T12:42:40.395Z,57.09
2019-06-15T12:45:09.928Z,57.28
2019-06-15T12:47:39.279Z,56.93
2019-06-15T12:50:08.658Z,56.60
2019-06-15T12:52:38.062Z,57.11
2019-06-15T12:55:08.550Z,57.42
2019-06-15T12:57:37.910Z,57.71
2019-06-15T13:00:08.224Z,58.26
2019-06-15T13:02:37.590Z,58.86
2019-06-15T13:05:08.173Z,58.49
2019-06-15T13:07:37.729Z,59.34
2019-06-15T13:10:07.891Z,59.90
2019-06-15T13:12:38.393Z,60.39
2019-06-15T13:15:08.096Z,60.80
2019-06-15T13:17:37.469Z,60.54
2019-06-15T13:20:08.398Z,60.36
2019-06-15T13:22:37.773Z,60.45
2019-06-15T13:25:08.657Z,60.00
2019-06-15T13:27:38.121Z,59.61
2019-06-15T13:30:10.339Z,59.93
2019-06-15T13:32:39.749Z,59.14
2019-06-15T13:35:09.835Z,59.82
2019-06-15T13:37:42.443Z,59.32
2019-06-15T13:40:10.848Z,59.93
2019-06-15T13:42:40.213Z,59.86
2019-06-15T13:45:10.346Z,59.99
2019-06-15T13:47:39.702Z,59.83
2019-06-15T13:50:09.439Z,59.99
2019-06-15T13:52:38.980Z,59.86
2019-06-15T13:55:08.694Z,59.80
2019-06-15T13:57:38.063Z,59.76
2019-06-15T14:00:08.863Z,60.11
2019-06-15T14:02:38.222Z,58.91
2019-06-15T14:05:07.865Z,59.03
2019-06-15T14:07:37.227Z,59.10
2019-06-15T14:10:06.978Z,59.42
2019-06-15T14:12:36.295Z,59.49
2019-06-15T14:15:07.623Z,59.13
2019-06-15T14:17:39.802Z,58.67
2019-06-15T14:20:08.870Z,58.41
2019-06-15T14:22:38.242Z,58.30
2019-06-15T14:25:08.818Z,57.76
2019-06-15T14:27:38.169Z,54.21
2019-06-15T14:30:10.002Z,54.07
2019-06-15T14:32:39.330Z,54.65
2019-06-15T14:35:09.049Z,54.85
2019-06-15T14:37:38.407Z,52.35
2019-06-15T14:40:08.443Z,50.58
2019-06-15T14:42:37.855Z,51.06
2019-06-15T14:45:08.135Z,49.90
2019-06-15T14:47:37.496Z,49.53
2019-06-15T14:50:07.287Z,49.06
2019-06-15T14:52:36.769Z,49.30
2019-06-15T14:55:07.273Z,49.63
2019-06-15T14:57:36.820Z,49.94
2019-06-15T15:00:08.750Z,49.97
2019-06-15T15:02:37.943Z,49.90
2019-06-15T15:05:07.753Z,49.82
2019-06-15T15:07:37.156Z,49.84
2019-06-15T15:10:11.042Z,49.68
2019-06-15T15:12:41.741Z,48.70
2019-06-15T15:15:12.674Z,47.88
2019-06-15T15:17:42.065Z,48.79
2019-06-15T15:20:12.477Z,49.19
2019-06-15T15:22:41.860Z,49.56
2019-06-15T15:25:11.769Z,49.73
2019-06-15T15:27:41.146Z,49.67
2019-06-15T15:30:11.153Z,48.85
2019-06-15T15:32:40.531Z,48.15
2019-06-15T15:35:09.954Z,48.38
2019-06-15T15:37:39.324Z,48.56
2019-06-15T15:40:09.106Z,48.85
2019-06-15T15:42:38.488Z,49.39
2019-06-15T15:45:07.987Z,49.54
2019-06-15T15:47:37.347Z,49.26
2019-06-15T15:50:07.690Z,49.39
2019-06-15T15:52:37.636Z,48.87
2019-06-15T15:55:08.287Z,48.21
2019-06-15T15:57:37.660Z,48.53
2019-06-15T16:00:07.776Z,48.38
2019-06-15T16:02:48.205Z,48.85
2019-06-15T16:05:09.369Z,49.53
2019-06-15T16:07:38.831Z,49.85
2019-06-15T16:10:08.664Z,49.89
2019-06-15T16:12:38.049Z,48.93
2019-06-15T16:15:08.082Z,49.15
2019-06-15T16:17:37.559Z,49.23
2019-06-15T16:20:09.920Z,48.88
2019-06-15T16:22:39.301Z,49.31
2019-06-15T16:25:08.747Z,49.26
2019-06-15T16:27:38.099Z,49.39
2019-06-15T16:30:08.705Z,49.13
2019-06-15T16:32:39.064Z,48.97
2019-06-15T16:35:08.975Z,48.89
2019-06-15T16:37:38.374Z,49.19
2019-06-15T16:40:09.626Z,49.03
2019-06-15T16:42:39.105Z,48.57
2019-06-15T16:45:08.616Z,48.63
2019-06-15T16:47:37.999Z,48.68
2019-06-15T16:50:07.775Z,48.65
2019-06-15T16:52:37.142Z,48.84
2019-06-15T16:55:10.932Z,49.45
2019-06-15T16:57:39.107Z,49.89
2019-06-15T17:00:14.024Z,50.11
2019-06-15T17:02:43.477Z,50.02
2019-06-15T17:05:12.825Z,50.05
2019-06-15T17:07:42.214Z,49.85
2019-06-15T17:10:11.756Z,49.77
2019-06-15T17:12:41.116Z,50.17
2019-06-15T17:15:11.521Z,49.98
2019-06-15T17:17:40.905Z,49.78
2019-06-15T17:20:11.089Z,49.77
2019-06-15T17:22:40.471Z,49.92
2019-06-15T17:25:11.240Z,49.69
2019-06-15T17:27:40.623Z,49.77
2019-06-15T17:30:09.974Z,50.00
2019-06-15T17:32:39.338Z,49.66
2019-06-15T17:35:08.695Z,49.91
2019-06-15T17:37:39.013Z,49.71
2019-06-15T17:40:08.706Z,50.08
2019-06-15T17:42:38.103Z,49.76
2019-06-15T17:45:07.622Z,49.86
2019-06-15T17:47:36.974Z,49.86
2019-06-15T17:50:07.446Z,50.03
2019-06-15T17:52:37.025Z,50.03
2019-06-15T17:55:07.692Z,50.37
2019-06-15T17:57:37.193Z,50.48
2019-06-15T18:00:11.354Z,50.60
2019-06-15T18:02:40.716Z,50.65
2019-06-15T18:05:10.215Z,51.10
2019-06-15T18:07:39.570Z,51.33
2019-06-15T18:10:09.493Z,51.62
2019-06-15T18:12:38.897Z,51.88
2019-06-15T18:15:09.801Z,52.28
2019-06-15T18:17:39.191Z,52.55
2019-06-15T18:20:08.662Z,53.04
2019-06-15T18:22:38.063Z,53.25
2019-06-15T18:25:07.585Z,53.73
2019-06-15T18:27:37.397Z,53.92
2019-06-15T18:30:07.732Z,54.25
2019-06-15T18:32:37.876Z,55.01
2019-06-15T18:35:07.429Z,54.98
2019-06-15T18:37:37.385Z,55.38
2019-06-15T18:40:07.323Z,56.11
2019-06-15T18:42:37.123Z,56.34
2019-06-15T18:45:07.511Z,56.94
2019-06-15T18:47:37.146Z,57.30
2019-06-15T18:50:10.136Z,57.79
2019-06-15T18:52:39.482Z,57.91
2019-06-15T18:55:09.193Z,58.25
2019-06-15T18:57:38.639Z,58.68
2019-06-15T19:00:08.635Z,59.31
2019-06-15T19:02:38.027Z,59.33
2019-06-15T19:05:09.017Z,59.72
2019-06-15T19:07:38.395Z,59.98
2019-06-15T19:10:08.506Z,60.53
2019-06-15T19:12:37.860Z,61.10
2019-06-15T19:15:07.573Z,61.78
2019-06-15T19:17:37.276Z,61.94
2019-06-15T19:20:08.721Z,62.36
2019-06-15T19:22:38.096Z,63.00
2019-06-15T19:25:07.501Z,63.40
2019-06-15T19:27:48.870Z,63.85
2019-06-15T19:30:18.362Z,64.25
2019-06-15T19:32:47.770Z,64.36
2019-06-15T19:35:17.203Z,64.53
2019-06-15T19:37:47.121Z,64.64
2019-06-15T19:40:16.756Z,64.60
2019-06-15T19:42:46.829Z,64.49
2019-06-15T19:45:17.162Z,64.69
2019-06-15T19:47:47.067Z,64.96
2019-06-15T19:50:16.740Z,65.43
2019-06-15T19:52:46.251Z,65.65
2019-06-15T19:55:16.490Z,65.85
2019-06-15T19:57:46.504Z,66.20
2019-06-15T20:00:17.148Z,66.54
2019-06-15T20:02:48.103Z,66.82
2019-06-15T20:05:17.737Z,67.10
2019-06-15T20:07:47.149Z,67.58
2019-06-15T20:10:18.747Z,67.96
2019-06-15T20:12:48.163Z,68.29
2019-06-15T20:15:17.820Z,68.75
2019-06-15T20:17:47.191Z,69.44
2019-06-15T20:20:17.104Z,69.79
2019-06-15T20:22:46.848Z,70.02
2019-06-15T20:25:16.252Z,70.34
2019-06-15T20:27:47.159Z,70.72
2019-06-15T20:30:18.407Z,70.61
2019-06-15T20:32:47.779Z,70.42
2019-06-15T20:35:21.125Z,70.67
2019-06-15T20:37:48.278Z,70.87
2019-06-15T20:40:19.094Z,71.78
2019-06-15T20:42:48.485Z,71.67
2019-06-15T20:45:18.105Z,72.11
2019-06-15T20:47:48.017Z,72.04
2019-06-15T20:50:27.529Z,72.13
2019-06-15T20:52:48.552Z,72.30
2019-06-15T20:55:17.955Z,72.46
2019-06-15T20:57:49.865Z,72.53
2019-06-15T21:00:18.540Z,72.85
2019-06-15T21:02:47.916Z,73.04
2019-06-15T21:05:33.557Z,73.27
2019-06-15T21:07:48.721Z,73.37
2019-06-15T21:10:18.400Z,73.65
2019-06-15T21:12:47.757Z,73.87
2019-06-15T21:15:17.586Z,74.02
2019-06-15T21:17:46.931Z,74.31
2019-06-15T21:20:18.040Z,74.40
2019-06-15T21:22:47.399Z,74.52
2019-06-15T21:25:17.511Z,74.79
2019-06-15T21:27:47.424Z,74.81
2019-06-15T21:30:18.495Z,74.86
2019-06-15T21:32:48.820Z,75.32
2019-06-15T21:35:18.207Z,75.38
2019-06-15T21:37:47.576Z,75.51
2019-06-15T21:40:18.497Z,75.74
2019-06-15T21:42:48.173Z,76.09
2019-06-15T21:45:17.622Z,76.34
2019-06-15T21:47:47.053Z,76.47
2019-06-15T21:50:16.689Z,76.61
2019-06-15T21:52:46.092Z,76.89
2019-06-15T21:55:16.051Z,77.01
2019-06-15T21:57:45.535Z,76.89
2019-06-15T22:00:18.554Z,76.78
2019-06-15T22:02:49.553Z,76.75
2019-06-15T22:05:18.904Z,76.73
2019-06-15T22:07:48.277Z,76.75
2019-06-15T22:10:19.045Z,76.73
2019-06-15T22:12:48.443Z,76.69
2019-06-15T22:15:17.917Z,76.62
2019-06-15T22:17:48.038Z,76.56
2019-06-15T22:20:17.807Z,76.52
2019-06-15T22:22:47.262Z,76.57
2019-06-15T22:25:16.972Z,76.64
2019-06-15T22:27:46.905Z,76.74
2019-06-15T22:30:17.874Z,76.84
2019-06-15T22:32:47.459Z,76.79
2019-06-15T22:35:16.941Z,76.73
2019-06-15T22:37:46.765Z,76.81
2019-06-15T22:40:16.683Z,76.87
2019-06-15T22:42:47.037Z,76.87
2019-06-15T22:45:17.187Z,76.92
2019-06-15T22:47:46.911Z,76.78
2019-06-15T22:50:16.341Z,76.35
2019-06-15T22:52:47.338Z,76.30
2019-06-15T22:55:16.816Z,76.61
2019-06-15T22:57:46.317Z,76.71
2019-06-15T23:00:17.125Z,76.67
2019-06-15T23:02:46.644Z,76.66
2019-06-15T23:05:17.181Z,76.65
2019-06-15T23:07:47.344Z,76.59
2019-06-15T23:10:16.942Z,76.83
2019-06-15T23:12:46.531Z,76.52
2019-06-15T23:15:17.425Z,76.51
2019-06-15T23:17:47.012Z,76.64
2019-06-15T23:20:17.311Z,76.76
2019-06-15T23:22:46.978Z,77.11
2019-06-15T23:25:17.602Z,77.25
2019-06-15T23:27:47.118Z,77.34
2019-06-15T23:30:16.704Z,77.41
2019-06-15T23:32:46.886Z,77.44
2019-06-15T23:35:19.801Z,77.66
2019-06-15T23:37:49.197Z,77.73
2019-06-15T23:40:23.602Z,77.74
2019-06-15T23:42:53.043Z,77.89
2019-06-15T23:45:23.066Z,78.06
2019-06-15T23:47:52.437Z,78.19
2019-06-15T23:50:23.144Z,78.40
2019-06-15T23:52:52.517Z,78.80
2019-06-15T23:55:21.901Z,78.99
2019-06-15T23:57:51.276Z,79.25
